createdAt,value
2018-07-28T00:01:37.557Z,8.53
2018-07-28T00:04:07.321Z,7.20
2018-07-28T00:06:37.168Z,6.67
2018-07-28T00:09:09.409Z,6.73
2018-07-28T00:11:39.568Z,7.43
2018-07-28T00:14:09.446Z,7.33
2018-07-28T00:16:39.236Z,6.97
2018-07-28T00:19:09.055Z,6.67
2018-07-28T00:21:38.865Z,6.87
2018-07-28T00:24:08.330Z,7.80
2018-07-28T00:26:37.902Z,7.33
2018-07-28T00:29:07.719Z,7.33
2018-07-28T00:31:37.513Z,7.13
2018-07-28T00:34:07.442Z,7.80
2018-07-28T00:36:37.267Z,7.47
2018-07-28T00:39:09.638Z,7.07
2018-07-28T00:41:39.451Z,7.23
2018-07-28T00:44:09.244Z,7.43
2018-07-28T00:46:39.074Z,7.10
2018-07-28T00:49:08.893Z,7.43
2018-07-28T00:51:38.694Z,7.27
2018-07-28T00:54:08.479Z,7.00
2018-07-28T00:56:38.015Z,7.37
2018-07-28T00:59:07.624Z,7.13
2018-07-28T01:01:37.437Z,7.57
2018-07-28T01:04:07.260Z,7.17
2018-07-28T01:06:37.041Z,7.20
2018-07-28T01:09:08.528Z,7.40
2018-07-28T01:11:38.411Z,7.53
2018-07-28T01:14:08.232Z,6.93
2018-07-28T01:16:38.010Z,7.87
2018-07-28T01:19:07.768Z,7.00
2018-07-28T01:21:37.556Z,7.20
2018-07-28T01:24:07.432Z,7.67
2018-07-28T01:26:36.891Z,7.43
2018-07-28T01:29:12.003Z,7.50
2018-07-28T01:31:41.801Z,7.03
2018-07-28T01:34:11.607Z,7.67
2018-07-28T01:36:41.369Z,7.40
2018-07-28T01:39:13.029Z,7.57
2018-07-28T01:41:43.487Z,8.20
2018-07-28T01:44:13.254Z,7.27
2018-07-28T01:46:43.028Z,6.87
2018-07-28T01:49:12.883Z,6.90
2018-07-28T01:51:42.642Z,7.30
2018-07-28T01:54:12.409Z,7.13
2018-07-28T01:56:42.776Z,7.47
2018-07-28T01:59:12.503Z,7.77
2018-07-28T02:01:42.941Z,7.80
2018-07-28T02:04:12.699Z,7.60
2018-07-28T02:06:42.548Z,7.60
2018-07-28T02:09:12.620Z,7.40
2018-07-28T02:11:42.478Z,7.23
2018-07-28T02:14:12.279Z,7.30
2018-07-28T02:16:42.108Z,7.57
2018-07-28T02:19:11.838Z,7.53
2018-07-28T02:21:41.615Z,7.13
2018-07-28T02:24:11.576Z,7.93
2018-07-28T02:26:41.437Z,7.40
2018-07-28T02:29:11.558Z,7.33
2018-07-28T02:31:41.760Z,7.37
2018-07-28T02:34:11.662Z,8.27
2018-07-28T02:36:41.423Z,7.60
2018-07-28T02:39:11.880Z,7.70
2018-07-28T02:41:42.134Z,7.20
2018-07-28T02:44:11.919Z,7.20
2018-07-28T02:46:41.694Z,7.50
2018-07-28T02:49:11.444Z,7.67
2018-07-28T02:51:41.246Z,7.17
2018-07-28T02:54:11.052Z,7.20
2018-07-28T02:56:40.872Z,7.17
2018-07-28T02:59:17.860Z,7.30
2018-07-28T03:01:48.377Z,7.50
2018-07-28T03:04:18.180Z,7.20
2018-07-28T03:06:47.983Z,7.30
2018-07-28T03:09:17.789Z,7.60
2018-07-28T03:11:47.626Z,7.50
2018-07-28T03:14:17.424Z,6.93
2018-07-28T03:16:47.195Z,7.30
2018-07-28T03:19:16.966Z,7.80
2018-07-28T03:21:46.761Z,7.40
2018-07-28T03:24:16.577Z,7.37
2018-07-28T03:26:46.378Z,6.93
2018-07-28T03:29:16.187Z,8.30
2018-07-28T03:31:45.971Z,8.03
2018-07-28T03:34:15.788Z,7.57
2018-07-28T03:36:45.729Z,7.50
2018-07-28T03:39:15.663Z,7.13
2018-07-28T03:41:45.426Z,7.20
2018-07-28T03:44:15.248Z,8.17
2018-07-28T03:46:45.055Z,7.70
2018-07-28T03:49:14.849Z,7.90
2018-07-28T03:51:44.608Z,7.77
2018-07-28T03:54:14.347Z,8.00
2018-07-28T03:56:44.196Z,7.80
2018-07-28T03:59:14.114Z,7.67
2018-07-28T04:01:43.893Z,8.00
2018-07-28T04:04:13.681Z,7.97
2018-07-28T04:06:43.448Z,7.93
2018-07-28T04:09:13.262Z,7.07
2018-07-28T04:11:43.160Z,7.27
2018-07-28T04:14:12.962Z,6.97
2018-07-28T04:16:42.784Z,7.97
2018-07-28T04:19:12.577Z,8.63
2018-07-28T04:21:42.374Z,7.60
2018-07-28T04:24:12.191Z,8.10
2018-07-28T04:26:41.674Z,7.93
2018-07-28T04:29:11.245Z,7.70
2018-07-28T04:31:41.067Z,7.67
2018-07-28T04:34:10.833Z,8.60
2018-07-28T04:36:40.600Z,8.10
2018-07-28T04:39:12.181Z,7.80
2018-07-28T04:41:42.849Z,7.93
2018-07-28T04:44:12.754Z,8.03
2018-07-28T04:46:42.541Z,8.57
2018-07-28T04:49:12.353Z,7.80
2018-07-28T04:51:42.180Z,7.90
2018-07-28T04:54:11.942Z,7.33
2018-07-28T04:56:41.697Z,7.77
2018-07-28T04:59:11.572Z,7.60
2018-07-28T05:01:41.411Z,7.77
2018-07-28T05:04:11.343Z,8.23
2018-07-28T05:06:40.803Z,8.27
2018-07-28T05:09:11.167Z,8.47
2018-07-28T05:11:40.583Z,8.03
2018-07-28T05:14:10.108Z,8.73
2018-07-28T05:16:39.922Z,8.27
2018-07-28T05:19:09.664Z,8.30
2018-07-28T05:21:39.711Z,8.13
2018-07-28T05:24:09.477Z,8.57
2018-07-28T05:26:39.287Z,7.47
2018-07-28T05:29:09.045Z,9.30
2018-07-28T05:31:38.977Z,8.37
2018-07-28T05:34:08.799Z,8.30
2018-07-28T05:36:38.671Z,7.97
2018-07-28T05:39:10.936Z,8.40
2018-07-28T05:41:40.911Z,8.30
2018-07-28T05:44:10.692Z,8.67
2018-07-28T05:46:40.492Z,7.40
2018-07-28T05:49:10.251Z,8.53
2018-07-28T05:51:40.057Z,8.20
2018-07-28T05:54:09.823Z,7.80
2018-07-28T05:56:39.568Z,8.23
2018-07-28T05:59:09.408Z,8.40
2018-07-28T06:01:39.205Z,8.63
2018-07-28T06:04:09.012Z,7.60
2018-07-28T06:06:38.758Z,8.67
2018-07-28T06:09:09.515Z,8.70
2018-07-28T06:11:39.722Z,7.90
2018-07-28T06:14:09.642Z,8.57
2018-07-28T06:16:39.409Z,8.13
2018-07-28T06:19:09.209Z,7.93
2018-07-28T06:21:38.968Z,8.10
2018-07-28T06:24:08.784Z,8.67
2018-07-28T06:26:38.658Z,8.67
2018-07-28T06:29:08.484Z,8.30
2018-07-28T06:31:38.406Z,7.70
2018-07-28T06:34:08.261Z,7.80
2018-07-28T06:36:38.071Z,7.77
2018-07-28T06:39:10.411Z,7.77
2018-07-28T06:41:40.241Z,8.20
2018-07-28T06:44:10.128Z,7.83
2018-07-28T06:46:40.089Z,7.53
2018-07-28T06:49:10.583Z,8.53
2018-07-28T06:51:40.425Z,8.23
2018-07-28T06:54:10.237Z,8.30
2018-07-28T06:56:40.094Z,16.20
2018-07-28T06:59:13.625Z,14.33
2018-07-28T07:01:43.492Z,10.43
2018-07-28T07:04:13.301Z,11.43
2018-07-28T07:06:43.151Z,11.50
2018-07-28T07:09:13.028Z,12.13
2018-07-28T07:11:42.953Z,10.60
2018-07-28T07:14:12.807Z,10.20
2018-07-28T07:16:42.732Z,11.03
2018-07-28T07:19:12.616Z,10.33
2018-07-28T07:21:42.554Z,10.70
2018-07-28T07:24:12.403Z,9.50
2018-07-28T07:26:42.298Z,9.70
2018-07-28T07:29:12.178Z,10.23
2018-07-28T07:31:41.999Z,10.60
2018-07-28T07:34:12.146Z,10.73
2018-07-28T07:36:42.559Z,10.13
2018-07-28T07:39:12.382Z,12.37
2018-07-28T07:41:42.259Z,10.10
2018-07-28T07:44:12.117Z,10.70
2018-07-28T07:46:42.064Z,10.10
2018-07-28T07:49:12.258Z,10.97
2018-07-28T07:51:42.043Z,10.90
2018-07-28T07:54:11.846Z,11.37
2018-07-28T07:56:41.653Z,11.60
2018-07-28T07:59:11.470Z,10.77
2018-07-28T08:01:41.267Z,10.10
2018-07-28T08:04:11.157Z,10.13
2018-07-28T08:06:40.967Z,9.77
2018-07-28T08:09:10.710Z,10.07
2018-07-28T08:11:40.522Z,10.10
2018-07-28T08:14:10.349Z,10.20
2018-07-28T08:16:40.149Z,10.43
2018-07-28T08:19:10.017Z,10.77
2018-07-28T08:21:39.833Z,9.70
2018-07-28T08:24:09.621Z,9.40
2018-07-28T08:26:39.449Z,8.97
2018-07-28T08:29:09.211Z,9.00
2018-07-28T08:31:39.018Z,8.97
2018-07-28T08:34:08.816Z,9.10
2018-07-28T08:36:38.594Z,10.10
2018-07-28T08:39:12.154Z,9.30
2018-07-28T08:41:42.953Z,9.17
2018-07-28T08:44:13.500Z,9.70
2018-07-28T08:46:43.251Z,8.97
2018-07-28T08:49:13.104Z,9.47
2018-07-28T08:51:42.830Z,9.73
2018-07-28T08:54:12.625Z,9.67
2018-07-28T08:56:42.462Z,9.93
2018-07-28T08:59:12.304Z,8.73
2018-07-28T09:01:42.138Z,9.20
2018-07-28T09:04:11.941Z,8.97
2018-07-28T09:06:41.795Z,8.83
2018-07-28T09:09:11.922Z,9.00
2018-07-28T09:11:41.798Z,9.67
2018-07-28T09:14:11.583Z,7.83
2018-07-28T09:16:41.409Z,8.20
2018-07-28T09:19:11.388Z,8.47
2018-07-28T09:21:41.176Z,8.53
2018-07-28T09:24:11.089Z,10.17
2018-07-28T09:26:40.891Z,8.40
2018-07-28T09:29:10.734Z,8.33
2018-07-28T09:31:40.518Z,7.83
2018-07-28T09:34:10.289Z,8.07
2018-07-28T09:36:40.342Z,7.90
2018-07-28T09:39:11.695Z,7.70
2018-07-28T09:41:41.668Z,7.70
2018-07-28T09:44:11.235Z,7.77
2018-07-28T09:46:41.206Z,7.47
2018-07-28T09:49:11.159Z,7.87
2018-07-28T09:51:41.347Z,7.15
2018-07-28T09:54:11.294Z,7.53
2018-07-28T09:56:41.234Z,7.37
2018-07-28T09:59:11.259Z,7.42
2018-07-28T10:01:41.130Z,7.75
2018-07-28T10:04:10.998Z,7.10
2018-07-28T10:06:40.930Z,9.05
2018-07-28T10:09:12.018Z,19.45
2018-07-28T10:11:41.995Z,6.62
2018-07-28T10:14:11.845Z,7.75
2018-07-28T10:16:41.727Z,7.42
2018-07-28T10:19:11.611Z,6.78
2018-07-28T10:21:41.500Z,7.35
2018-07-28T10:24:11.314Z,7.03
2018-07-28T10:26:41.112Z,6.95
2018-07-28T10:29:10.979Z,7.75
2018-07-28T10:31:40.809Z,6.83
2018-07-28T10:34:10.628Z,6.85
2018-07-28T10:36:40.398Z,6.15
2018-07-28T10:39:12.564Z,7.20
2018-07-28T10:41:42.818Z,6.65
2018-07-28T10:44:12.718Z,5.75
2018-07-28T10:46:42.287Z,4.60
2018-07-28T10:49:11.919Z,5.00
2018-07-28T10:51:41.783Z,4.50
2018-07-28T10:54:11.561Z,4.08
2018-07-28T10:56:41.496Z,4.55
2018-07-28T10:59:11.298Z,4.20
2018-07-28T11:01:41.101Z,4.35
2018-07-28T11:04:10.884Z,3.95
2018-07-28T11:06:40.720Z,4.30
2018-07-28T11:09:10.796Z,4.40
2018-07-28T11:11:40.644Z,4.37
2018-07-28T11:14:10.489Z,4.40
2018-07-28T11:16:40.356Z,4.35
2018-07-28T11:19:09.863Z,4.40
2018-07-28T11:21:39.483Z,4.42
2018-07-28T11:24:09.365Z,4.03
2018-07-28T11:26:39.213Z,4.55
2018-07-28T11:29:09.941Z,4.12
2018-07-28T11:31:50.972Z,3.87
2018-07-28T11:34:32.129Z,4.20
2018-07-28T11:38:42.537Z,3.98
2018-07-28T11:41:23.664Z,3.90
2018-07-28T11:46:07.203Z,4.85
2018-07-28T11:48:37.562Z,5.17
2018-07-28T11:51:07.529Z,5.35
2018-07-28T11:53:37.420Z,5.40
2018-07-28T11:56:07.338Z,5.30
2018-07-28T11:58:37.151Z,5.20
2018-07-28T12:01:07.081Z,4.72
2018-07-28T12:03:36.901Z,5.10
2018-07-28T12:06:06.732Z,4.70
2018-07-28T12:08:36.542Z,5.30
2018-07-28T12:11:06.780Z,5.33
2018-07-28T12:13:36.647Z,4.67
2018-07-28T12:16:06.492Z,4.65
2018-07-28T12:18:36.431Z,5.60
2018-07-28T12:21:06.213Z,5.28
2018-07-28T12:23:36.828Z,5.40
2018-07-28T12:26:06.699Z,4.97
2018-07-28T12:28:36.512Z,5.42
2018-07-28T12:31:06.279Z,5.00
2018-07-28T12:33:36.077Z,5.27
2018-07-28T12:36:06.368Z,5.60
2018-07-28T12:38:36.190Z,6.63
2018-07-28T12:41:06.072Z,6.20
2018-07-28T12:43:35.906Z,6.50
2018-07-28T12:46:05.800Z,6.20
2018-07-28T12:48:35.629Z,6.33
2018-07-28T12:51:05.599Z,6.20
2018-07-28T12:53:35.514Z,6.27
2018-07-28T12:56:06.402Z,7.10
2018-07-28T12:58:36.711Z,7.90
2018-07-28T13:01:06.547Z,7.90
2018-07-28T13:03:36.418Z,7.03
2018-07-28T13:06:06.541Z,7.50
2018-07-28T13:08:36.329Z,7.00
2018-07-28T13:11:06.229Z,7.60
2018-07-28T13:13:36.144Z,7.50
2018-07-28T13:16:06.292Z,7.23
2018-07-28T13:18:37.175Z,7.20
2018-07-28T13:21:07.571Z,8.23
2018-07-28T13:23:37.389Z,7.93
2018-07-28T13:26:08.291Z,8.27
2018-07-28T13:28:38.073Z,8.10
2018-07-28T13:31:07.943Z,6.85
2018-07-28T13:33:37.759Z,7.17
2018-07-28T13:36:07.582Z,6.45
2018-07-28T13:38:37.411Z,6.37
2018-07-28T13:41:07.275Z,6.58
2018-07-28T13:43:37.224Z,7.42
2018-07-28T13:46:07.004Z,7.42
2018-07-28T13:48:36.875Z,7.80
2018-07-28T13:51:06.781Z,7.55
2018-07-28T13:53:36.735Z,8.05
2018-07-28T13:56:06.593Z,8.38
2018-07-28T13:58:36.403Z,7.92
2018-07-28T14:01:06.247Z,7.60
2018-07-28T14:03:36.080Z,7.15
2018-07-28T14:06:06.955Z,7.03
2018-07-28T14:08:36.670Z,6.83
2018-07-28T14:11:06.960Z,7.20
2018-07-28T14:13:36.911Z,7.17
2018-07-28T14:16:06.765Z,7.20
2018-07-28T14:18:36.630Z,7.30
2018-07-28T14:21:06.526Z,7.92
2018-07-28T14:23:36.362Z,7.60
2018-07-28T14:26:06.186Z,8.20
2018-07-28T14:28:35.974Z,8.45
2018-07-28T14:31:05.897Z,8.50
2018-07-28T14:33:35.698Z,8.68
2018-07-28T14:36:05.924Z,8.23
2018-07-28T14:38:35.759Z,7.80
2018-07-28T14:41:05.591Z,7.97
2018-07-28T14:43:35.423Z,8.10
2018-07-28T14:46:05.288Z,6.92
2018-07-28T14:48:35.071Z,7.47
2018-07-28T14:51:04.853Z,7.80
2018-07-28T14:53:34.769Z,7.55
2018-07-28T14:56:04.659Z,7.30
2018-07-28T14:58:34.444Z,7.42
2018-07-28T15:01:04.321Z,7.33
2018-07-28T15:03:34.159Z,6.85
2018-07-28T15:06:03.974Z,7.28
2018-07-28T15:08:33.824Z,6.40
2018-07-28T15:11:03.641Z,5.62
2018-07-28T15:13:33.477Z,4.95
2018-07-28T15:16:03.360Z,5.20
2018-07-28T15:18:33.179Z,5.22
2018-07-28T15:21:03.066Z,5.03
2018-07-28T15:23:32.917Z,5.17
2018-07-28T15:26:02.727Z,5.03
2018-07-28T15:28:32.575Z,4.55
2018-07-28T15:31:02.564Z,4.83
2018-07-28T15:33:32.471Z,4.90
2018-07-28T15:36:04.073Z,4.85
2018-07-28T15:38:33.854Z,4.72
2018-07-28T15:41:03.693Z,4.45
2018-07-28T15:43:33.492Z,4.70
2018-07-28T15:46:03.345Z,4.30
2018-07-28T15:48:33.142Z,4.35
2018-07-28T15:51:02.935Z,4.03
2018-07-28T15:53:33.526Z,4.28
2018-07-28T15:56:03.797Z,3.98
2018-07-28T15:58:33.623Z,4.08
2018-07-28T16:01:03.432Z,4.22
2018-07-28T16:03:33.272Z,3.85
2018-07-28T16:06:03.229Z,4.42
2018-07-28T16:08:33.029Z,4.30
2018-07-28T16:11:02.887Z,4.25
2018-07-28T16:13:32.716Z,4.42
2018-07-28T16:16:02.580Z,3.70
2018-07-28T16:18:32.387Z,4.20
2018-07-28T16:21:02.246Z,4.15
2018-07-28T16:23:32.095Z,4.28
2018-07-28T16:26:01.945Z,4.05
2018-07-28T16:28:31.752Z,4.28
2018-07-28T16:31:01.644Z,3.75
2018-07-28T16:33:31.434Z,8.48
2018-07-28T16:36:01.352Z,4.10
2018-07-28T16:38:31.180Z,4.40
2018-07-28T16:41:01.160Z,4.12
2018-07-28T16:43:30.950Z,3.77
2018-07-28T16:46:00.890Z,4.70
2018-07-28T16:48:30.676Z,4.08
2018-07-28T16:51:00.544Z,4.25
2018-07-28T16:53:30.472Z,4.33
2018-07-28T16:56:00.302Z,4.10
2018-07-28T16:58:30.085Z,4.43
2018-07-28T17:00:59.876Z,4.42
2018-07-28T17:03:29.792Z,4.22
2018-07-28T17:05:59.633Z,4.12
2018-07-28T17:08:29.443Z,3.85
2018-07-28T17:10:59.305Z,4.05
2018-07-28T17:13:29.134Z,3.40
2018-07-28T17:15:58.989Z,3.92
2018-07-28T17:18:28.943Z,3.65
2018-07-28T17:20:58.757Z,3.60
2018-07-28T17:23:28.636Z,4.05
2018-07-28T17:25:58.496Z,3.62
2018-07-28T17:28:28.327Z,4.40
2018-07-28T17:30:58.133Z,3.60
2018-07-28T17:33:28.094Z,3.40
2018-07-28T17:35:57.961Z,3.67
2018-07-28T17:38:27.765Z,3.30
2018-07-28T17:40:57.637Z,3.67
2018-07-28T17:43:27.394Z,3.58
2018-07-28T17:45:57.207Z,3.20
2018-07-28T17:48:27.017Z,3.70
2018-07-28T17:50:56.805Z,4.20
2018-07-28T17:53:26.661Z,4.12
2018-07-28T17:55:56.489Z,3.62
2018-07-28T17:58:26.309Z,3.47
2018-07-28T18:00:56.179Z,3.33
2018-07-28T18:03:26.009Z,3.40
2018-07-28T18:05:57.762Z,3.65
2018-07-28T18:08:27.542Z,3.22
2018-07-28T18:10:57.324Z,3.67
2018-07-28T18:13:27.159Z,3.50
2018-07-28T18:15:56.921Z,3.57
2018-07-28T18:18:26.770Z,3.43
2018-07-28T18:20:56.719Z,3.13
2018-07-28T18:23:26.469Z,3.27
2018-07-28T18:25:56.266Z,3.33
2018-07-28T18:28:26.054Z,3.60
2018-07-28T18:30:55.831Z,3.57
2018-07-28T18:33:25.638Z,3.63
2018-07-28T18:35:55.515Z,3.17
2018-07-28T18:38:25.300Z,3.60
2018-07-28T18:40:55.177Z,3.70
2018-07-28T18:43:24.961Z,3.47
2018-07-28T18:45:54.737Z,3.63
2018-07-28T18:48:24.530Z,3.60
2018-07-28T18:50:54.804Z,3.47
2018-07-28T18:53:24.616Z,3.00
2018-07-28T18:55:54.648Z,3.27
2018-07-28T18:58:24.448Z,3.60
2018-07-28T19:00:54.216Z,3.30
2018-07-28T19:03:24.080Z,3.57
2018-07-28T19:05:53.811Z,3.50
2018-07-28T19:08:23.595Z,3.17
2018-07-28T19:10:54.099Z,3.40
2018-07-28T19:13:29.096Z,2.97
2018-07-28T19:15:58.892Z,3.03
2018-07-28T19:18:34.149Z,3.37
2018-07-28T19:21:03.960Z,3.47
2018-07-28T19:23:39.247Z,3.60
2018-07-28T19:26:08.959Z,3.30
2018-07-28T19:28:43.848Z,3.53
2018-07-28T19:31:13.408Z,3.67
2018-07-28T19:33:43.164Z,3.90
2018-07-28T19:36:18.388Z,3.50
2018-07-28T19:38:48.147Z,3.80
2018-07-28T19:41:18.181Z,3.53
2018-07-28T19:43:47.948Z,3.43
2018-07-28T19:46:17.786Z,3.27
2018-07-28T19:48:47.575Z,3.30
2018-07-28T19:51:17.463Z,3.40
2018-07-28T19:53:47.276Z,3.20
2018-07-28T19:56:17.179Z,2.87
2018-07-28T19:58:46.969Z,3.40
2018-07-28T20:01:16.773Z,3.30
2018-07-28T20:03:46.551Z,3.30
2018-07-28T20:06:16.367Z,3.10
2018-07-28T20:08:46.219Z,3.23
2018-07-28T20:11:16.019Z,3.37
2018-07-28T20:13:45.969Z,2.80
2018-07-28T20:16:15.681Z,2.87
2018-07-28T20:18:45.772Z,3.00
2018-07-28T20:21:15.585Z,2.80
2018-07-28T20:23:45.424Z,2.90
2018-07-28T20:26:15.323Z,2.90
2018-07-28T20:28:45.169Z,3.00
2018-07-28T20:31:14.972Z,3.10
2018-07-28T20:33:44.770Z,3.10
2018-07-28T20:36:14.553Z,3.00
2018-07-28T20:38:44.338Z,3.10
2018-07-28T20:41:14.188Z,3.00
2018-07-28T20:43:43.721Z,2.80
2018-07-28T20:46:13.349Z,3.03
2018-07-28T20:48:43.117Z,2.80
2018-07-28T20:51:12.960Z,2.97
2018-07-28T20:53:42.725Z,3.10
2018-07-28T20:56:12.524Z,2.77
2018-07-28T20:58:42.375Z,3.03
2018-07-28T21:01:12.148Z,2.50
2018-07-28T21:03:41.961Z,2.90
2018-07-28T21:06:11.740Z,2.70
2018-07-28T21:08:41.571Z,2.50
2018-07-28T21:11:11.070Z,2.70
2018-07-28T21:13:40.661Z,2.63
2018-07-28T21:16:10.473Z,3.00
2018-07-28T21:18:40.260Z,3.03
2018-07-28T21:21:10.096Z,2.17
2018-07-28T21:23:39.886Z,2.90
2018-07-28T21:26:09.748Z,2.63
2018-07-28T21:28:39.548Z,2.53
2018-07-28T21:31:09.345Z,2.50
2018-07-28T21:33:39.279Z,2.57
2018-07-28T21:36:09.033Z,2.73
2018-07-28T21:38:38.849Z,2.70
2018-07-28T21:41:08.627Z,2.70
2018-07-28T21:43:38.452Z,2.50
2018-07-28T21:46:08.295Z,2.83
2018-07-28T21:48:38.117Z,2.77
2018-07-28T21:51:07.921Z,2.60
2018-07-28T21:53:37.778Z,2.50
2018-07-28T21:56:07.582Z,2.50
2018-07-28T21:58:37.392Z,2.83
2018-07-28T22:01:14.338Z,2.43
2018-07-28T22:03:44.126Z,2.40
2018-07-28T22:06:14.242Z,2.60
2018-07-28T22:08:44.197Z,2.67
2018-07-28T22:11:14.045Z,2.73
2018-07-28T22:13:43.830Z,2.50
2018-07-28T22:16:13.672Z,2.50
2018-07-28T22:18:43.514Z,2.70
2018-07-28T22:21:13.294Z,2.93
2018-07-28T22:23:43.140Z,2.67
2018-07-28T22:26:12.923Z,2.87
2018-07-28T22:28:42.698Z,2.60
2018-07-28T22:31:12.495Z,2.70
2018-07-28T22:33:42.315Z,2.57
2018-07-28T22:36:12.099Z,2.53
2018-07-28T22:38:41.976Z,2.67
2018-07-28T22:41:11.722Z,2.60
2018-07-28T22:43:41.542Z,2.70
2018-07-28T22:46:11.381Z,2.50
2018-07-28T22:48:41.107Z,2.70
2018-07-28T22:51:10.940Z,2.90
2018-07-28T22:53:40.743Z,2.83
2018-07-28T22:56:10.531Z,2.83
2018-07-28T22:58:40.472Z,2.63
2018-07-28T23:01:10.359Z,2.60
2018-07-28T23:03:40.108Z,3.20
2018-07-28T23:06:09.914Z,2.83
2018-07-28T23:08:39.776Z,2.90
2018-07-28T23:11:09.552Z,3.00
2018-07-28T23:13:39.485Z,2.73
2018-07-28T23:16:09.407Z,2.90
2018-07-28T23:18:39.249Z,3.10
2018-07-28T23:21:08.729Z,2.80
2018-07-28T23:23:38.364Z,2.67
2018-07-28T23:26:08.180Z,2.87
2018-07-28T23:28:38.029Z,2.90
2018-07-28T23:31:08.260Z,2.80
2018-07-28T23:33:38.115Z,2.67
2018-07-28T23:36:08.046Z,2.73
2018-07-28T23:38:37.889Z,2.80
2018-07-28T23:41:07.716Z,3.00
2018-07-28T23:43:37.509Z,2.83
2018-07-28T23:46:07.345Z,2.93
2018-07-28T23:48:37.160Z,2.83
2018-07-28T23:51:06.977Z,3.10
2018-07-28T23:53:36.784Z,3.30
2018-07-28T23:56:06.581Z,2.80
2018-07-28T23:58:36.340Z,2.87
